Time;durP1;ratioP1;P1;durP2;ratioP2;P2;SDS_P1;SDS_P2;PMS_P1;PMS_P2;Temp;Humidity;BMP_temperature;BMP_pressure;BME280_temperature;BME280_humidity;BME280_pressure;Samples;Min_cycle;Max_cycle;Signal;HPM_P1;HPM_P2
2021/05/15 00:01:07;;;;;;;;;;;;;;;9.63;84.50;95517.13;3591848;39;20012;-52
2021/05/15 00:03:34;;;;;;;;;;;;;;;9.55;84.49;95505.25;3590210;39;19946;-52
2021/05/15 00:06:01;;;;;;;;;;;;;;;9.61;84.61;95519.22;3573648;39;19954;-52
2021/05/15 00:08:28;;;;;;;;;;;;;;;9.60;84.77;95517.63;3592557;39;19939;-52
2021/05/15 00:10:54;;;;;;;;;;;;;;;9.59;84.59;95521.31;3592082;39;19950;-52
2021/05/15 00:13:20;;;;;;;;;;;;;;;9.59;84.56;95519.50;3593883;39;19955;-52
2021/05/15 00:15:46;;;;;;;;;;;;;;;9.58;84.23;95525.00;3585449;39;19947;-55
2021/05/15 00:18:12;;;;;;;;;;;;;;;9.54;84.60;95525.50;3584239;39;19940;-52
2021/05/15 00:20:39;;;;;;;;;;;;;;;9.55;84.43;95521.06;3593204;39;19965;-54
2021/05/15 00:23:05;;;;;;;;;;;;;;;9.49;84.67;95522.88;3595857;39;19962;-53
2021/05/15 00:25:32;;;;;;;;;;;;;;;9.51;84.47;95518.16;3583390;39;20384;-54
2021/05/15 00:27:58;;;;;;;;;;;;;;;9.53;84.61;95518.69;3582226;39;19940;-54
2021/05/15 00:30:25;;;;;;;;;;;;;;;9.57;84.18;95516.31;3593251;39;19950;-53
2021/05/15 00:32:51;;;;;;;;;;;;;;;9.60;84.16;95517.63;3594797;39;19954;-53
2021/05/15 00:35:17;;;;;;;;;;;;;;;9.60;84.24;95515.78;3593522;39;19962;-54
2021/05/15 00:37:44;;;;;;;;;;;;;;;9.62;84.29;95511.06;3594916;39;19939;-54
2021/05/15 00:40:11;;;;;;;;;;;;;;;9.60;84.70;95509.75;3595770;39;20415;-54
2021/05/15 00:42:38;;;;;;;;;;;;;;;9.55;84.87;95510.53;3584728;39;19939;-57
2021/05/15 00:45:05;;;;;;;;;;;;;;;9.53;85.80;95517.88;3596499;39;19946;-53
2021/05/15 00:47:32;;;;;;;;;;;;;;;9.52;85.70;95518.94;3598051;39;20411;-53
2021/05/15 00:49:58;;;;;;;;;;;;;;;9.49;85.99;95522.88;3594342;39;19953;-54
2021/05/15 00:52:27;;;;;;;;;;;;;;;9.49;85.75;95527.34;3593231;39;19945;-54
2021/05/15 00:54:54;;;;;;;;;;;;;;;9.51;85.22;95520.78;3582995;39;22269;-53
2021/05/15 00:57:21;;;;;;;;;;;;;;;9.55;84.76;95523.69;3584135;39;19938;-53
2021/05/15 00:59:47;;;;;;;;;;;;;;;9.56;84.57;95511.28;3598525;39;19940;-53
2021/05/15 01:02:13;;;;;;;;;;;;;;;9.50;85.17;95518.38;3597366;39;19948;-53
2021/05/15 01:04:40;;;;;;;;;;;;;;;9.48;85.85;95518.66;3593146;39;19945;-54
2021/05/15 01:07:07;;;;;;;;;;;;;;;9.46;85.55;95512.06;3592864;39;19943;-53
2021/05/15 01:09:33;;;;;;;;;;;;;;;9.48;85.45;95517.84;3577477;39;19936;-54
2021/05/15 01:12:06;;;;;;;;;;;;;;;9.42;85.29;95505.72;3596599;39;19940;-53
2021/05/15 01:14:34;;;;;;;;;;;;;;;9.45;85.71;95519.16;3584839;39;21494;-54
2021/05/15 01:17:00;;;;;;;;;;;;;;;9.45;85.52;95521.81;3591537;39;20587;-53
2021/05/15 01:19:26;;;;;;;;;;;;;;;9.46;85.10;95518.13;3593981;39;19939;-53
2021/05/15 01:21:53;;;;;;;;;;;;;;;9.47;85.18;95524.97;3593967;39;19959;-54
2021/05/15 01:24:19;;;;;;;;;;;;;;;9.43;85.51;95523.88;3593006;39;19943;-53
2021/05/15 01:26:45;;;;;;;;;;;;;;;9.43;85.63;95526.53;3594466;39;19946;-53
2021/05/15 01:29:11;;;;;;;;;;;;;;;9.46;85.62;95526.00;3596174;39;20303;-54
2021/05/15 01:31:38;;;;;;;;;;;;;;;9.45;85.56;95528.91;3583684;39;19940;-53
2021/05/15 01:34:06;;;;;;;;;;;;;;;9.42;85.87;95524.94;3582220;39;19938;-53
2021/05/15 01:36:35;;;;;;;;;;;;;;;9.41;85.76;95526.00;3589620;39;19941;-53
2021/05/15 01:39:02;;;;;;;;;;;;;;;9.38;85.75;95524.66;3600978;39;19940;-54
2021/05/15 01:41:28;;;;;;;;;;;;;;;9.30;85.47;95513.84;3595805;39;19946;-53
2021/05/15 01:43:58;;;;;;;;;;;;;;;9.40;85.71;95524.44;3595462;39;19954;-53
2021/05/15 01:46:24;;;;;;;;;;;;;;;9.41;85.31;95526.00;3584322;39;19946;-54
2021/05/15 01:48:51;;;;;;;;;;;;;;;9.38;85.59;95523.88;3594419;39;19946;-54
2021/05/15 01:51:17;;;;;;;;;;;;;;;9.33;85.42;95534.38;3597230;39;19940;-53
2021/05/15 01:53:45;;;;;;;;;;;;;;;9.32;85.29;95530.16;3568686;39;19936;-53
2021/05/15 01:56:12;;;;;;;;;;;;;;;9.30;85.33;95538.31;3591734;39;19939;-53
2021/05/15 01:58:38;;;;;;;;;;;;;;;9.28;85.14;95526.47;3593787;39;19952;-53
2021/05/15 02:01:05;;;;;;;;;;;;;;;9.22;85.11;95529.09;3602730;39;20447;-53
2021/05/15 02:03:38;;;;;;;;;;;;;;;9.19;85.10;95526.94;3595302;39;19946;-53
2021/05/15 02:06:04;;;;;;;;;;;;;;;9.12;85.20;95531.66;3594213;39;19944;-55
2021/05/15 02:08:31;;;;;;;;;;;;;;;9.04;85.26;95522.41;3583065;39;20530;-53
2021/05/15 02:10:57;;;;;;;;;;;;;;;8.96;85.83;95530.78;3586432;39;19946;-54
2021/05/15 02:13:28;;;;;;;;;;;;;;;8.89;85.80;95528.38;3595092;39;19931;-54
2021/05/15 02:15:55;;;;;;;;;;;;;;;8.87;86.58;95533.09;3597135;39;19973;-53
2021/05/15 02:18:21;;;;;;;;;;;;;;;8.82;86.32;95524.41;3583741;39;19940;-53
2021/05/15 02:20:48;;;;;;;;;;;;;;;8.78;86.92;95518.84;3594681;39;19973;-53
2021/05/15 02:23:15;;;;;;;;;;;;;;;8.75;87.14;95509.63;3594314;39;19950;-54
2021/05/15 02:25:41;;;;;;;;;;;;;;;8.75;87.42;95504.34;3584883;39;19944;-53
2021/05/15 02:28:08;;;;;;;;;;;;;;;8.75;87.50;95503.56;3594108;39;19945;-54
2021/05/15 02:30:34;;;;;;;;;;;;;;;8.73;87.83;95505.66;3597927;39;19932;-53
2021/05/15 02:33:01;;;;;;;;;;;;;;;8.72;87.66;95501.44;3595182;39;19940;-53
2021/05/15 02:35:27;;;;;;;;;;;;;;;8.71;87.35;95502.50;3593569;39;20400;-53
2021/05/15 02:37:54;;;;;;;;;;;;;;;8.69;87.37;95502.75;3594169;39;19950;-53
2021/05/15 02:40:21;;;;;;;;;;;;;;;8.69;87.24;95509.84;3593499;39;19989;-53
2021/05/15 02:42:49;;;;;;;;;;;;;;;8.68;86.68;95508.25;3593188;39;20418;-54
2021/05/15 02:45:16;;;;;;;;;;;;;;;8.66;87.18;95505.88;3595249;39;19944;-54
2021/05/15 02:47:42;;;;;;;;;;;;;;;8.69;86.53;95512.47;3593854;39;19939;-53
2021/05/15 02:50:09;;;;;;;;;;;;;;;8.70;86.51;95514.84;3585382;39;19943;-53
2021/05/15 02:52:36;;;;;;;;;;;;;;;8.60;85.79;95505.06;3594307;39;19944;-53
2021/05/15 02:55:08;;;;;;;;;;;;;;;8.68;85.68;95514.31;3587075;39;19981;-53
2021/05/15 02:57:34;;;;;;;;;;;;;;;8.65;85.88;95514.03;3593916;39;19954;-53
2021/05/15 03:00:02;;;;;;;;;;;;;;;8.59;86.08;95519.25;3591079;39;19996;-54
2021/05/15 03:02:28;;;;;;;;;;;;;;;8.52;85.30;95521.31;3599031;39;19932;-54
2021/05/15 03:04:54;;;;;;;;;;;;;;;8.45;86.08;95518.06;3579961;39;19943;-52
2021/05/15 03:07:20;;;;;;;;;;;;;;;8.43;85.61;95514.91;3585410;39;19950;-52
2021/05/15 03:09:46;;;;;;;;;;;;;;;8.41;85.48;95517.00;3591694;39;19954;-53
2021/05/15 03:12:13;;;;;;;;;;;;;;;8.39;85.87;95517.22;3592434;39;20190;-53
2021/05/15 03:14:39;;;;;;;;;;;;;;;8.36;85.41;95523.00;3590896;39;20433;-53
2021/05/15 03:17:07;;;;;;;;;;;;;;;8.39;86.09;95526.97;3595798;39;19939;-53
2021/05/15 03:19:33;;;;;;;;;;;;;;;8.39;85.38;95526.97;3584218;39;20118;-53
2021/05/15 03:21:59;;;;;;;;;;;;;;;8.38;85.62;95531.41;3594448;39;20255;-55
2021/05/15 03:24:25;;;;;;;;;;;;;;;8.39;85.14;95526.97;3592271;39;19944;-54
2021/05/15 03:26:52;;;;;;;;;;;;;;;8.44;85.37;95529.59;3583500;39;19939;-53
2021/05/15 03:29:18;;;;;;;;;;;;;;;8.49;85.52;95528.91;3588417;39;19958;-53
2021/05/15 03:31:44;;;;;;;;;;;;;;;8.56;85.15;95524.22;3575489;39;19939;-53
2021/05/15 03:34:10;;;;;;;;;;;;;;;8.71;84.71;95526.97;3582512;39;20041;-54
2021/05/15 03:36:37;;;;;;;;;;;;;;;8.80;83.49;95532.53;3585363;39;20725;-54
2021/05/15 03:39:03;;;;;;;;;;;;;;;8.91;83.23;95533.38;3576553;39;20126;-54
2021/05/15 03:41:30;;;;;;;;;;;;;;;8.99;83.14;95540.00;3592676;39;20748;-54
2021/05/15 03:43:56;;;;;;;;;;;;;;;9.06;82.36;95525.59;3591690;39;19939;-53
2021/05/15 03:46:22;;;;;;;;;;;;;;;9.25;82.13;95540.94;3575268;39;19940;-54
2021/05/15 03:48:48;;;;;;;;;;;;;;;9.37;81.18;95546.78;3595066;39;19939;-52
2021/05/15 03:51:15;;;;;;;;;;;;;;;9.48;80.71;95537.09;3594960;39;19932;-52
2021/05/15 03:53:41;;;;;;;;;;;;;;;9.64;79.52;95545.06;3595981;39;19946;-54
2021/05/15 03:56:07;;;;;;;;;;;;;;;10.43;77.85;95555.50;3585350;39;19943;-53
2021/05/15 03:58:34;;;;;;;;;;;;;;;11.22;75.01;95544.59;3595329;39;20031;-53
2021/05/15 04:01:00;;;;;;;;;;;;;;;12.18;72.89;95546.28;3593404;39;19939;-53
2021/05/15 04:03:26;;;;;;;;;;;;;;;12.22;70.95;95555.25;3583721;39;19971;-53
2021/05/15 04:05:52;;;;;;;;;;;;;;;12.54;69.97;95563.75;3598937;39;19938;-53
2021/05/15 04:08:19;;;;;;;;;;;;;;;12.74;68.50;95557.50;3589497;39;19940;-54
2021/05/15 04:10:45;;;;;;;;;;;;;;;12.94;67.09;95556.50;3600907;39;20201;-53
2021/05/15 04:13:29;;;;;;;;;;;;;;;13.43;66.08;95560.03;3595051;39;19939;-53
2021/05/15 04:15:59;;;;;;;;;;;;;;;13.89;64.61;95563.19;3597435;39;19944;-54
2021/05/15 04:18:28;;;;;;;;;;;;;;;14.85;62.40;95567.38;3597876;39;19942;-53
2021/05/15 04:20:55;;;;;;;;;;;;;;;14.80;61.57;95561.38;3595500;39;19987;-53
2021/05/15 04:23:21;;;;;;;;;;;;;;;15.13;59.65;95562.13;3586414;39;19944;-53
2021/05/15 04:25:48;;;;;;;;;;;;;;;15.12;59.10;95565.06;3593243;39;19954;-53
2021/05/15 04:28:15;;;;;;;;;;;;;;;15.58;58.27;95564.19;3595427;39;19946;-53
2021/05/15 04:30:41;;;;;;;;;;;;;;;15.66;58.01;95566.19;3596723;39;20496;-53
2021/05/15 04:33:08;;;;;;;;;;;;;;;15.65;56.98;95564.59;3594624;39;19940;-53
2021/05/15 04:35:34;;;;;;;;;;;;;;;16.20;55.42;95568.28;3597202;39;19935;-53
2021/05/15 04:38:04;;;;;;;;;;;;;;;16.61;54.25;95569.22;3586694;39;19944;-53
2021/05/15 04:40:31;;;;;;;;;;;;;;;17.17;53.01;95571.63;3576324;39;20300;-53
2021/05/15 04:42:58;;;;;;;;;;;;;;;17.61;51.20;95572.56;3594362;39;20479;-56
2021/05/15 04:45:27;;;;;;;;;;;;;;;18.19;50.09;95577.09;3591460;39;19943;-53
2021/05/15 04:47:53;;;;;;;;;;;;;;;18.51;49.63;95578.53;3593845;39;19939;-53
2021/05/15 04:50:19;;;;;;;;;;;;;;;19.02;49.49;95578.78;3595539;39;19940;-53
2021/05/15 04:52:45;;;;;;;;;;;;;;;19.44;46.20;95572.06;3595358;39;20021;-54
2021/05/15 04:55:11;;;;;;;;;;;;;;;19.44;47.20;95570.19;3586446;39;19946;-54
2021/05/15 04:57:38;;;;;;;;;;;;;;;19.46;46.07;95575.22;3584103;39;19992;-54
2021/05/15 05:00:04;;;;;;;;;;;;;;;19.43;46.40;95573.16;3586707;39;19944;-54
2021/05/15 05:02:31;;;;;;;;;;;;;;;19.08;46.13;95582.09;3586131;39;19940;-54
2021/05/15 05:04:57;;;;;;;;;;;;;;;19.01;46.38;95589.81;3581644;39;19932;-54
2021/05/15 05:07:23;;;;;;;;;;;;;;;18.76;47.02;95586.84;3587835;39;20184;-54
2021/05/15 05:09:50;;;;;;;;;;;;;;;18.12;48.64;95591.72;3592992;39;19940;-53
2021/05/15 05:12:16;;;;;;;;;;;;;;;17.76;49.07;95595.38;3594340;39;19944;-54
2021/05/15 05:14:43;;;;;;;;;;;;;;;16.99;50.09;95597.38;3588800;39;19932;-54
2021/05/15 05:17:09;;;;;;;;;;;;;;;16.18;53.08;95594.41;3583723;39;19942;-53
2021/05/15 05:19:35;;;;;;;;;;;;;;;15.77;54.38;95597.88;3586401;39;19969;-53
2021/05/15 05:22:02;;;;;;;;;;;;;;;15.19;57.12;95598.13;3586746;39;19946;-53
2021/05/15 05:24:29;;;;;;;;;;;;;;;14.98;56.74;95595.03;3583228;39;19940;-53
2021/05/15 05:26:56;;;;;;;;;;;;;;;14.59;57.96;95593.50;3588667;39;20295;-54
2021/05/15 05:29:22;;;;;;;;;;;;;;;14.37;58.77;95597.53;3586417;39;19940;-54
2021/05/15 05:31:50;;;;;;;;;;;;;;;14.50;57.86;95601.34;3593070;39;19962;-53
2021/05/15 05:34:16;;;;;;;;;;;;;;;14.49;57.84;95601.63;3585760;39;19993;-53
2021/05/15 05:36:43;;;;;;;;;;;;;;;14.47;58.90;95604.56;3589504;39;20215;-53
2021/05/15 05:39:10;;;;;;;;;;;;;;;14.53;57.73;95589.38;3588010;39;20598;-54
2021/05/15 05:41:36;;;;;;;;;;;;;;;14.68;59.64;95609.59;3580584;39;19932;-53
2021/05/15 05:44:04;;;;;;;;;;;;;;;14.61;58.41;95607.28;3583844;39;19950;-53
2021/05/15 05:46:30;;;;;;;;;;;;;;;14.37;59.50;95608.16;3582556;39;21416;-53
2021/05/15 05:48:56;;;;;;;;;;;;;;;14.20;59.29;95605.22;3592303;39;19946;-52
2021/05/15 05:51:23;;;;;;;;;;;;;;;13.97;59.80;95611.09;3588883;39;19946;-55
2021/05/15 05:53:50;;;;;;;;;;;;;;;13.64;60.74;95612.78;3584889;39;19936;-54
2021/05/15 05:56:17;;;;;;;;;;;;;;;13.38;62.78;95616.50;3583368;39;19944;-55
2021/05/15 05:58:45;;;;;;;;;;;;;;;13.20;62.23;95618.00;3585162;39;19954;-54
2021/05/15 06:01:12;;;;;;;;;;;;;;;13.30;63.41;95621.59;3579851;39;19948;-54
2021/05/15 06:03:38;;;;;;;;;;;;;;;13.26;62.29;95617.91;3585478;39;19948;-54
2021/05/15 06:06:05;;;;;;;;;;;;;;;13.30;63.56;95622.38;3583928;39;19962;-54
2021/05/15 06:08:31;;;;;;;;;;;;;;;13.43;62.85;95623.63;3579321;39;19936;-54
2021/05/15 06:10:58;;;;;;;;;;;;;;;13.59;62.34;95611.00;3584034;39;20592;-53
2021/05/15 06:13:25;;;;;;;;;;;;;;;13.68;61.33;95619.13;3590767;39;20339;-54
2021/05/15 06:15:51;;;;;;;;;;;;;;;13.64;62.06;95624.19;3580030;39;19944;-54
2021/05/15 06:18:17;;;;;;;;;;;;;;;13.71;60.16;95621.22;3590838;39;19940;-54
2021/05/15 06:20:43;;;;;;;;;;;;;;;13.72;61.18;95625.44;3575039;39;19944;-55
2021/05/15 06:23:10;;;;;;;;;;;;;;;13.79;61.82;95611.81;3592707;39;20319;-54
2021/05/15 06:25:36;;;;;;;;;;;;;;;13.88;61.28;95612.00;3589857;39;19936;-54
2021/05/15 06:28:02;;;;;;;;;;;;;;;13.89;60.12;95613.56;3587891;39;20088;-54
2021/05/15 06:30:29;;;;;;;;;;;;;;;14.05;60.66;95607.00;3585382;39;19951;-54
2021/05/15 06:32:55;;;;;;;;;;;;;;;13.97;61.60;95607.63;3587456;39;20206;-54
2021/05/15 06:35:21;;;;;;;;;;;;;;;13.99;60.31;95608.13;3585324;39;20308;-54
2021/05/15 06:37:47;;;;;;;;;;;;;;;13.91;60.58;95606.91;3587941;39;19944;-54
2021/05/15 06:40:14;;;;;;;;;;;;;;;13.84;60.30;95607.28;3586151;39;20282;-53
2021/05/15 06:42:40;;;;;;;;;;;;;;;13.80;60.62;95600.94;3585914;39;20184;-54
2021/05/15 06:45:08;;;;;;;;;;;;;;;13.73;60.20;95605.78;3586681;39;19958;-54
2021/05/15 06:47:34;;;;;;;;;;;;;;;13.78;59.40;95597.78;3588092;39;19935;-54
2021/05/15 06:50:00;;;;;;;;;;;;;;;13.87;61.13;95610.41;3586365;39;19936;-54
2021/05/15 06:52:27;;;;;;;;;;;;;;;13.90;59.70;95602.69;3591590;39;19940;-54
2021/05/15 06:54:53;;;;;;;;;;;;;;;13.92;59.85;95605.81;3601007;39;19950;-54
2021/05/15 06:57:20;;;;;;;;;;;;;;;13.84;60.04;95596.66;3589450;39;19932;-54
2021/05/15 06:59:46;;;;;;;;;;;;;;;13.97;60.47;95602.31;3592490;39;19959;-55
2021/05/15 07:02:13;;;;;;;;;;;;;;;13.83;59.45;95605.69;3593559;39;19936;-54
2021/05/15 07:04:39;;;;;;;;;;;;;;;13.90;60.50;95600.03;3592617;39;19944;-54
2021/05/15 07:07:05;;;;;;;;;;;;;;;14.03;59.33;95597.78;3579839;39;19944;-54
2021/05/15 07:09:32;;;;;;;;;;;;;;;14.07;60.14;95599.56;3589809;39;19936;-54
2021/05/15 07:11:58;;;;;;;;;;;;;;;14.19;60.44;95595.69;3588613;39;19940;-54
2021/05/15 07:14:24;;;;;;;;;;;;;;;14.27;59.90;95592.38;3589003;39;19944;-54
2021/05/15 07:16:50;;;;;;;;;;;;;;;14.44;58.22;95595.34;3591373;39;19938;-55
2021/05/15 07:19:17;;;;;;;;;;;;;;;14.63;57.96;95589.22;3590571;39;20396;-54
2021/05/15 07:21:43;;;;;;;;;;;;;;;14.76;58.08;95598.34;3590581;39;19946;-54
2021/05/15 07:24:09;;;;;;;;;;;;;;;14.97;57.81;95598.00;3590296;39;19944;-54
2021/05/15 07:26:35;;;;;;;;;;;;;;;15.15;57.67;95599.78;3592815;39;19936;-55
2021/05/15 07:29:02;;;;;;;;;;;;;;;15.30;57.61;95593.44;3581945;39;19939;-54
2021/05/15 07:31:28;;;;;;;;;;;;;;;15.33;58.87;95600.03;3592116;39;19944;-54
2021/05/15 07:33:54;;;;;;;;;;;;;;;15.26;57.86;95589.00;3592769;39;20761;-54
2021/05/15 07:36:21;;;;;;;;;;;;;;;15.28;56.16;95587.63;3589368;39;19936;-53
2021/05/15 07:38:48;;;;;;;;;;;;;;;15.29;56.85;95588.41;3592508;39;19938;-53
2021/05/15 07:41:15;;;;;;;;;;;;;;;15.50;57.10;95599.44;3593106;39;19940;-53
2021/05/15 07:43:41;;;;;;;;;;;;;;;15.73;57.66;95603.00;3584178;39;19954;-54
2021/05/15 07:46:07;;;;;;;;;;;;;;;15.85;56.48;95591.88;3594103;39;20320;-55
2021/05/15 07:48:43;;;;;;;;;;;;;;;15.82;55.32;95584.47;3593001;39;20188;-54
2021/05/15 07:51:10;;;;;;;;;;;;;;;15.77;56.00;95587.25;3582868;39;19939;-54
2021/05/15 07:53:37;;;;;;;;;;;;;;;15.70;54.58;95598.28;3593751;39;19978;-54
2021/05/15 07:56:04;;;;;;;;;;;;;;;15.70;56.29;95598.28;3586513;39;19936;-54
2021/05/15 07:58:30;;;;;;;;;;;;;;;15.92;55.92;95591.50;3585091;39;20305;-54
2021/05/15 08:00:57;;;;;;;;;;;;;;;16.28;54.79;95596.84;3588517;39;20315;-54
2021/05/15 08:03:23;;;;;;;;;;;;;;;16.68;53.17;95596.22;3583298;39;20306;-54
2021/05/15 08:05:49;;;;;;;;;;;;;;;17.11;53.71;95589.63;3594336;39;19932;-54
2021/05/15 08:08:16;;;;;;;;;;;;;;;17.29;51.10;95587.06;3592077;39;19950;-54
2021/05/15 08:10:42;;;;;;;;;;;;;;;17.46;50.91;95581.78;3592629;39;19940;-54
2021/05/15 08:13:08;;;;;;;;;;;;;;;17.71;50.36;95590.16;3592097;39;19940;-54
2021/05/15 08:15:35;;;;;;;;;;;;;;;17.67;50.13;95583.88;3593238;39;19942;-54
2021/05/15 08:18:01;;;;;;;;;;;;;;;17.89;50.09;95584.91;3592858;39;19942;-54
2021/05/15 08:20:28;;;;;;;;;;;;;;;17.86;50.16;95591.63;3592066;39;20304;-54
2021/05/15 08:22:54;;;;;;;;;;;;;;;17.75;51.55;95588.47;3591775;39;19940;-54
2021/05/15 08:25:21;;;;;;;;;;;;;;;17.89;49.21;95588.34;3594016;39;19932;-54
2021/05/15 08:27:54;;;;;;;;;;;;;;;18.04;48.09;95589.03;3593707;39;20274;-54
2021/05/15 08:30:21;;;;;;;;;;;;;;;18.23;46.24;95586.84;3592830;39;20128;-54
2021/05/15 08:32:51;;;;;;;;;;;;;;;18.30;47.53;95589.03;3593941;39;19932;-54
2021/05/15 08:35:18;;;;;;;;;;;;;;;18.08;46.43;95588.09;3593799;39;19938;-54
2021/05/15 08:37:45;;;;;;;;;;;;;;;18.06;46.23;95584.94;3582556;39;19958;-55
2021/05/15 08:40:11;;;;;;;;;;;;;;;18.08;46.98;95588.09;3583793;39;19940;-54
2021/05/15 08:42:42;;;;;;;;;;;;;;;18.17;47.23;95589.97;3593660;39;20213;-54
2021/05/15 08:45:09;;;;;;;;;;;;;;;18.36;47.18;95587.00;3593593;39;19936;-55
2021/05/15 08:47:36;;;;;;;;;;;;;;;18.62;47.88;95579.00;3591246;39;19948;-55
2021/05/15 08:50:07;;;;;;;;;;;;;;;18.96;47.18;95582.75;3592841;39;20201;-55
2021/05/15 08:52:37;;;;;;;;;;;;;;;18.85;46.41;95573.47;3597109;39;20075;-58
2021/05/15 08:55:05;;;;;;;;;;;;;;;18.89;46.36;95571.75;3598739;39;19939;-55
2021/05/15 08:57:34;;;;;;;;;;;;;;;18.74;45.57;95576.47;3594214;39;19932;-55
2021/05/15 09:00:07;;;;;;;;;;;;;;;18.80;45.82;95577.09;3589558;39;19940;-55
2021/05/15 09:02:33;;;;;;;;;;;;;;;18.75;45.29;95578.06;3582175;39;20162;-54
2021/05/15 09:05:06;;;;;;;;;;;;;;;18.80;44.38;95577.09;3591040;39;19940;-54
2021/05/15 09:07:34;;;;;;;;;;;;;;;18.84;44.70;95577.25;3590434;39;20529;-55
2021/05/15 09:10:04;;;;;;;;;;;;;;;18.88;45.22;95573.63;3596356;39;19947;-55
2021/05/15 09:12:32;;;;;;;;;;;;;;;18.79;44.07;95577.41;3592795;39;19948;-55
2021/05/15 09:15:02;;;;;;;;;;;;;;;18.89;43.56;95574.41;3594241;39;19944;-56
2021/05/15 09:17:40;;;;;;;;;;;;;;;19.13;44.38;95575.81;3594193;39;19940;-55
2021/05/15 09:20:08;;;;;;;;;;;;;;;19.48;42.91;95562.31;3591967;39;20944;-55
2021/05/15 09:22:35;;;;;;;;;;;;;;;19.43;42.49;95560.59;3592907;39;19950;-55
2021/05/15 09:25:04;;;;;;;;;;;;;;;19.32;41.51;95560.16;3593633;39;20023;-55
2021/05/15 09:27:36;;;;;;;;;;;;;;;19.19;42.52;95555.81;3591139;39;19943;-55
2021/05/15 09:30:04;;;;;;;;;;;;;;;19.13;42.52;95559.75;3591925;39;19942;-55
2021/05/15 09:32:33;;;;;;;;;;;;;;;19.16;41.40;95554.56;3591910;39;19943;-55
2021/05/15 09:35:01;;;;;;;;;;;;;;;19.12;41.78;95555.53;3593500;39;19948;-55
2021/05/15 09:37:29;;;;;;;;;;;;;;;19.05;42.12;95553.34;3591981;39;19951;-55
2021/05/15 09:39:56;;;;;;;;;;;;;;;18.88;41.05;95533.53;3592123;39;19935;-55
2021/05/15 09:42:24;;;;;;;;;;;;;;;19.08;41.79;95542.00;3590530;39;20213;-55
2021/05/15 09:44:51;;;;;;;;;;;;;;;19.35;42.18;95548.03;3582046;39;19962;-55
2021/05/15 09:47:19;;;;;;;;;;;;;;;19.47;41.10;95544.69;3591809;39;20548;-55
2021/05/15 09:49:52;;;;;;;;;;;;;;;19.54;41.71;95544.94;3592166;39;19936;-55
2021/05/15 09:52:19;;;;;;;;;;;;;;;19.58;41.37;95532.50;3591950;39;19942;-55
2021/05/15 09:54:47;;;;;;;;;;;;;;;19.60;39.99;95530.31;3590280;39;20551;-53
2021/05/15 09:57:18;;;;;;;;;;;;;;;19.59;38.72;95533.28;3591498;39;19936;-55
2021/05/15 09:59:46;;;;;;;;;;;;;;;19.58;37.86;95534.38;3597914;39;19946;-55
2021/05/15 10:02:15;;;;;;;;;;;;;;;19.58;39.12;95534.38;3588462;39;20302;-55
2021/05/15 10:04:43;;;;;;;;;;;;;;;19.52;38.07;95531.91;3584992;39;19944;-55
2021/05/15 10:07:15;;;;;;;;;;;;;;;19.63;38.85;95513.56;3587875;39;19936;-55
2021/05/15 10:09:42;;;;;;;;;;;;;;;19.78;38.25;95509.56;3598429;39;19945;-55
2021/05/15 10:12:11;;;;;;;;;;;;;;;19.76;38.26;95511.00;3577904;39;20282;-55
2021/05/15 10:14:39;;;;;;;;;;;;;;;19.48;38.60;95511.47;3574508;39;19943;-55
2021/05/15 10:17:07;;;;;;;;;;;;;;;19.48;39.16;95516.84;3581558;39;19941;-55
2021/05/15 10:19:34;;;;;;;;;;;;;;;19.70;38.16;95501.59;3592312;39;20006;-55
2021/05/15 10:22:02;;;;;;;;;;;;;;;19.97;37.94;95505.69;3583841;39;20274;-55
2021/05/15 10:24:30;;;;;;;;;;;;;;;20.23;39.41;95502.81;3590712;39;20508;-55
2021/05/15 10:27:06;;;;;;;;;;;;;;;20.36;37.55;95497.53;3581561;39;19973;-55
2021/05/15 10:29:35;;;;;;;;;;;;;;;20.52;38.33;95503.81;3584124;39;19944;-54
2021/05/15 10:32:03;;;;;;;;;;;;;;;20.83;36.52;95494.56;3592915;39;19973;-55
2021/05/15 10:34:31;;;;;;;;;;;;;;;21.03;36.49;95497.47;3589462;39;19942;-55
2021/05/15 10:37:01;;;;;;;;;;;;;;;20.99;37.74;95493.88;3591332;39;19944;-55
2021/05/15 10:39:29;;;;;;;;;;;;;;;20.99;38.10;95499.25;3601318;39;19936;-55
2021/05/15 10:41:58;;;;;;;;;;;;;;;20.97;36.88;95496.16;3588301;39;20242;-55
2021/05/15 10:44:26;;;;;;;;;;;;;;;21.16;36.66;95499.06;3596592;39;19955;-55
2021/05/15 10:46:55;;;;;;;;;;;;;;;21.19;37.17;95493.03;3593461;39;20338;-55
2021/05/15 10:49:25;;;;;;;;;;;;;;;21.23;37.96;95495.06;3595143;39;20304;-55
2021/05/15 10:51:57;;;;;;;;;;;;;;;21.45;38.74;95483.06;3590746;39;19940;-55
2021/05/15 10:54:32;;;;;;;;;;;;;;;21.23;36.01;95476.28;3593556;39;19944;-55
2021/05/15 10:57:04;;;;;;;;;;;;;;;21.03;37.40;95476.03;3593356;39;19954;-55
2021/05/15 10:59:32;;;;;;;;;;;;;;;20.99;38.51;95480.47;3591879;39;19936;-55
2021/05/15 11:02:00;;;;;;;;;;;;;;;20.85;37.14;95478.94;3596069;39;20295;-55
2021/05/15 11:04:30;;;;;;;;;;;;;;;20.72;37.91;95477.31;3601566;39;19936;-55
2021/05/15 11:07:02;;;;;;;;;;;;;;;20.51;37.79;95480.03;3590411;39;19954;-55
2021/05/15 11:09:32;;;;;;;;;;;;;;;20.44;38.83;95475.22;3601828;39;19944;-55
2021/05/15 11:12:03;;;;;;;;;;;;;;;20.60;38.22;95472.69;3583272;39;19942;-55
2021/05/15 11:14:42;;;;;;;;;;;;;;;20.67;38.70;95472.94;3581250;39;19944;-54
2021/05/15 11:17:13;;;;;;;;;;;;;;;20.73;36.56;95468.94;3599717;39;19944;-55
2021/05/15 11:19:54;;;;;;;;;;;;;;;20.61;37.36;95465.44;3593159;39;19954;-55
2021/05/15 11:22:34;;;;;;;;;;;;;;;20.70;38.11;95456.19;3599194;39;19966;-54
2021/05/15 11:25:15;;;;;;;;;;;;;;;20.91;37.53;95454.56;3601867;39;19954;-54
2021/05/15 11:28:03;;;;;;;;;;;;;;;21.11;36.44;95453.69;3600887;39;19950;-55
2021/05/15 11:30:31;;;;;;;;;;;;;;;21.15;36.85;95456.50;3594388;39;19950;-55
2021/05/15 11:32:58;;;;;;;;;;;;;;;21.16;37.18;95458.06;3601790;39;19943;-55
2021/05/15 11:35:26;;;;;;;;;;;;;;;21.24;37.46;95451.78;3586537;39;19966;-54
2021/05/15 11:38:13;;;;;;;;;;;;;;;21.37;36.13;95459.84;3605256;39;19946;-54
2021/05/15 11:40:50;;;;;;;;;;;;;;;21.30;37.14;95460.41;3593792;39;20046;-54
2021/05/15 11:43:19;;;;;;;;;;;;;;;21.17;36.94;95456.94;3594108;39;19936;-54
2021/05/15 11:45:47;;;;;;;;;;;;;;;20.85;37.27;95464.72;3593083;39;19950;-54
2021/05/15 11:48:22;;;;;;;;;;;;;;;20.76;38.82;95459.47;3594802;39;19947;-54
2021/05/15 11:51:11;;;;;;;;;;;;;;;20.86;38.45;95463.63;3601024;39;19935;-54
2021/05/15 11:53:40;;;;;;;;;;;;;;;20.92;37.36;95456.13;3598290;39;20292;-55
2021/05/15 11:56:11;;;;;;;;;;;;;;;20.96;37.46;95457.03;3599545;39;19965;-54
2021/05/15 11:58:45;;;;;;;;;;;;;;;21.12;38.25;95447.19;3583339;39;19947;-55
2021/05/15 12:01:20;;;;;;;;;;;;;;;21.32;37.97;95436.69;3601581;39;19962;-54
2021/05/15 12:03:48;;;;;;;;;;;;;;;21.62;38.34;95439.13;3604176;39;19976;-54
2021/05/15 12:06:17;;;;;;;;;;;;;;;21.46;38.15;95445.19;3591059;39;19948;-54
2021/05/15 12:08:45;;;;;;;;;;;;;;;21.51;38.75;95439.56;3593385;39;19940;-55
2021/05/15 12:11:13;;;;;;;;;;;;;;;21.65;38.90;95439.25;3589274;39;20602;-54
2021/05/15 12:13:51;;;;;;;;;;;;;;;21.78;38.48;95440.00;3599966;39;19946;-55
2021/05/15 12:16:22;;;;;;;;;;;;;;;21.70;37.82;95430.19;3598005;39;19947;-55
2021/05/15 12:18:49;;;;;;;;;;;;;;;21.65;38.14;95427.72;3593030;39;19942;-55
2021/05/15 12:21:24;;;;;;;;;;;;;;;21.54;38.83;95421.25;3600997;39;19947;-55
2021/05/15 12:23:53;;;;;;;;;;;;;;;21.46;38.21;95421.03;3591317;39;20538;-55
2021/05/15 12:26:22;;;;;;;;;;;;;;;21.56;37.53;95419.00;3602795;39;19946;-55
2021/05/15 12:28:50;;;;;;;;;;;;;;;21.69;38.80;95415.19;3602569;39;19952;-55
2021/05/15 12:31:25;;;;;;;;;;;;;;;21.68;38.87;95410.94;3602094;39;19944;-55
2021/05/15 12:33:55;;;;;;;;;;;;;;;21.55;38.75;95407.47;3605573;39;19935;-55
2021/05/15 12:36:23;;;;;;;;;;;;;;;21.38;38.06;95410.44;3604466;39;19948;-54
2021/05/15 12:38:55;;;;;;;;;;;;;;;21.31;39.74;95414.44;3604092;39;19936;-53
2021/05/15 12:41:25;;;;;;;;;;;;;;;21.21;39.76;95406.84;3590293;39;19969;-53
2021/05/15 12:44:06;;;;;;;;;;;;;;;21.12;39.21;95409.66;3603186;39;19944;-53
2021/05/15 12:46:35;;;;;;;;;;;;;;;20.54;38.91;95415.84;3604103;39;19940;-53
2021/05/15 12:49:06;;;;;;;;;;;;;;;20.39;40.44;95419.97;3593120;39;19958;-53
2021/05/15 12:51:35;;;;;;;;;;;;;;;20.14;42.31;95408.38;3605381;39;19932;-53
2021/05/15 12:54:12;;;;;;;;;;;;;;;20.02;44.07;95411.81;3604270;39;19936;-53